Hagood, South Carolina
Current Conditions -  °F | °C
As of 3:58 AM on Friday 24 Oct 2014 (Local Time) from KSSC Reporting Station
Clear Clear  
Wind Chill: 50°   Ceiling: Unl
Heat Index: 50°   Visibility: 10mi
Dew Point: 45°   Wind: 7mph
Humidity: 81%   Direction: 30°NNE
Pressure: 30.01"   Gusts: NA
Location:  34.1106°N, 80.4967°W
Report Text: KSSC 240758Z AUTO 03006KT 10SM CLR 10/07 A3001 RMK AO2 SLP163 T01020070 $
Loading
Personal Weather Stations






























Interactive Weather Map
Tropical Storm Tracking
New forecast layout! Learn more

10-Day Weather Forecast

Advertisements
Track Severe Weather on mobile